Twin Springs, Nevada Weather observations

Data are for observation ending at time listed.
 Day   Time    Ave.   Ave.  Ave.  Vector   Max.   Stn.    Total    Solar   Ave.  
  of    of     Air    Rel.  Wind   Wind    Wind   Baro.  Precip.   Rad.    Soil  
Year   Day     Temp.  Hum.  Speed  Dir.    Gust   Pres.                    Temp. 
2016   (PST)    F      %     mph   deg.    mph     mb.     in.     W/m2     F   
------------------------------------------------------------------------------
 207   21:00   88.5     9    9.0   191     16.0    844     0.00       0    92.5
 207   22:00   85.7     9    7.3   183     15.4    844     0.00       0    91.1
 207   23:00   77.5    11    5.0   344     20.8    845     0.00       0    90.0
 208    0:00   72.0    13    2.3   117      5.1    845     0.00       0    88.7
 208    1:00   67.5    16    3.7   340      9.1    845     0.00       0    87.3
 208    2:00   64.1    19    3.0   335      8.5    846     0.00       0    85.9
 208    3:00   61.9    20    3.4   331      8.0    846     0.00       0    84.5
 208    4:00   60.4    18    4.4   329      6.4    846     0.00       0    83.1
 208    5:00   55.8    26    5.5   307      8.8    846     0.00       3    81.9
 208    6:00   57.7    23    3.8   304      5.3    847     0.00      80    80.7
 208    7:00   66.9    15    4.6   300      7.5    847     0.00     332    79.6
 208    8:00   72.5    13    5.3   344      8.2    847     0.00     559    79.0
 208    9:00   81.4    11    2.7   310      5.7    847     0.00     749    79.3
 208   10:00   91.3     8    0.1   209      2.9    847     0.00     903    80.7
 208   11:00   94.4     9    1.2   115      7.0    847     0.00    1013    83.6
 208   12:00   96.8     8    2.5    90     11.2    846     0.00    1066    87.5
 208   13:00   98.0     7    2.6    63     13.4    845     0.00    1046    91.6
 208   14:00  100.0     7    2.6   259     14.0    844     0.00     970    94.7
 208   15:00  100.9     7    4.5   281     18.7    844     0.00     840    95.3
 208   16:00  100.9     6    4.7   293     15.8    843     0.00     669    94.9
 208   17:00   99.7     6    5.7   299     14.9    843     0.00     459    95.3
 208   18:00   98.1     6    5.0   298     12.2    843     0.00     250    96.1
 208   19:00   94.4     8    2.3   287      6.9    843     0.00      57    95.8
 208   20:00   88.9     7    1.8   274      5.0    843     0.00       1    94.7

Return to Twin Springs, Nevada graphs page.


Western Regional Climate Center,wrcc@dri.edu